sensor_id;sensor_type;location;lat;lon;timestamp;temperature;humidity
20803;DHT22;10562;-33.856;151.182;2022-07-23T00:02:14;13.60;99.90
20803;DHT22;10562;-33.856;151.182;2022-07-23T00:04:45;13.70;99.90
20803;DHT22;10562;-33.856;151.182;2022-07-23T00:07:16;13.70;99.90
20803;DHT22;10562;-33.856;151.182;2022-07-23T00:09:47;13.80;99.90
20803;DHT22;10562;-33.856;151.182;2022-07-23T00:12:20;13.90;99.90
20803;DHT22;10562;-33.856;151.182;2022-07-23T00:14:54;13.80;99.90
20803;DHT22;10562;-33.856;151.182;2022-07-23T00:17:24;14.00;99.90
20803;DHT22;10562;-33.856;151.182;2022-07-23T00:19:55;14.10;99.90
20803;DHT22;10562;-33.856;151.182;2022-07-23T00:22:26;14.30;99.90
20803;DHT22;10562;-33.856;151.182;2022-07-23T00:24:57;14.70;99.90
20803;DHT22;10562;-33.856;151.182;2022-07-23T00:27:33;14.90;99.90
20803;DHT22;10562;-33.856;151.182;2022-07-23T00:30:07;14.80;99.90
20803;DHT22;10562;-33.856;151.182;2022-07-23T00:32:47;14.80;99.90
20803;DHT22;10562;-33.856;151.182;2022-07-23T00:35:20;14.80;99.90
20803;DHT22;10562;-33.856;151.182;2022-07-23T00:37:52;14.90;99.90
20803;DHT22;10562;-33.856;151.182;2022-07-23T00:40:23;14.90;99.90
20803;DHT22;10562;-33.856;151.182;2022-07-23T00:42:56;14.60;99.90
20803;DHT22;10562;-33.856;151.182;2022-07-23T00:45:30;14.60;99.90
20803;DHT22;10562;-33.856;151.182;2022-07-23T00:48:01;14.70;99.90
20803;DHT22;10562;-33.856;151.182;2022-07-23T00:50:32;14.60;99.90
20803;DHT22;10562;-33.856;151.182;2022-07-23T00:53:03;14.60;99.90
20803;DHT22;10562;-33.856;151.182;2022-07-23T00:55:36;14.70;99.90
20803;DHT22;10562;-33.856;151.182;2022-07-23T00:58:14;14.80;99.90
20803;DHT22;10562;-33.856;151.182;2022-07-23T01:00:45;14.80;99.90
20803;DHT22;10562;-33.856;151.182;2022-07-23T01:03:15;14.80;99.90
20803;DHT22;10562;-33.856;151.182;2022-07-23T01:05:50;14.70;99.90
20803;DHT22;10562;-33.856;151.182;2022-07-23T01:08:21;14.80;99.90
20803;DHT22;10562;-33.856;151.182;2022-07-23T01:10:51;14.80;99.90
20803;DHT22;10562;-33.856;151.182;2022-07-23T01:13:24;14.80;99.90
20803;DHT22;10562;-33.856;151.182;2022-07-23T01:15:55;14.80;99.90
20803;DHT22;10562;-33.856;151.182;2022-07-23T01:18:26;14.80;99.90
20803;DHT22;10562;-33.856;151.182;2022-07-23T01:20:57;14.70;99.90
20803;DHT22;10562;-33.856;151.182;2022-07-23T01:23:33;14.70;99.90
20803;DHT22;10562;-33.856;151.182;2022-07-23T01:26:04;14.80;99.90
20803;DHT22;10562;-33.856;151.182;2022-07-23T01:28:35;14.90;99.90
20803;DHT22;10562;-33.856;151.182;2022-07-23T01:31:07;15.00;99.90
20803;DHT22;10562;-33.856;151.182;2022-07-23T01:33:37;15.10;99.90
20803;DHT22;10562;-33.856;151.182;2022-07-23T01:36:12;15.00;99.90
20803;DHT22;10562;-33.856;151.182;2022-07-23T01:38:44;15.10;99.90
20803;DHT22;10562;-33.856;151.182;2022-07-23T01:41:15;15.30;99.90
20803;DHT22;10562;-33.856;151.182;2022-07-23T01:43:46;15.30;99.90
20803;DHT22;10562;-33.856;151.182;2022-07-23T01:46:17;15.30;99.90
20803;DHT22;10562;-33.856;151.182;2022-07-23T01:48:48;15.30;99.90
20803;DHT22;10562;-33.856;151.182;2022-07-23T01:51:19;15.30;99.90
20803;DHT22;10562;-33.856;151.182;2022-07-23T01:53:52;15.20;99.90
20803;DHT22;10562;-33.856;151.182;2022-07-23T01:56:22;15.10;99.90
20803;DHT22;10562;-33.856;151.182;2022-07-23T01:58:53;15.00;99.90
20803;DHT22;10562;-33.856;151.182;2022-07-23T02:01:24;15.00;99.90
20803;DHT22;10562;-33.856;151.182;2022-07-23T02:03:57;15.30;99.90
20803;DHT22;10562;-33.856;151.182;2022-07-23T02:06:28;15.30;99.90
20803;DHT22;10562;-33.856;151.182;2022-07-23T02:09:01;15.40;99.90
20803;DHT22;10562;-33.856;151.182;2022-07-23T02:11:32;15.50;99.90
20803;DHT22;10562;-33.856;151.182;2022-07-23T02:14:05;15.70;99.90
20803;DHT22;10562;-33.856;151.182;2022-07-23T02:16:39;16.00;99.90
20803;DHT22;10562;-33.856;151.182;2022-07-23T02:19:10;16.10;99.90
20803;DHT22;10562;-33.856;151.182;2022-07-23T02:21:42;16.20;99.90
20803;DHT22;10562;-33.856;151.182;2022-07-23T02:24:14;16.40;99.90
20803;DHT22;10562;-33.856;151.182;2022-07-23T02:26:45;16.70;99.90
20803;DHT22;10562;-33.856;151.182;2022-07-23T02:29:16;16.70;99.90
20803;DHT22;10562;-33.856;151.182;2022-07-23T02:31:47;16.50;99.90
20803;DHT22;10562;-33.856;151.182;2022-07-23T02:34:18;16.40;99.90
20803;DHT22;10562;-33.856;151.182;2022-07-23T02:36:48;16.30;99.90
20803;DHT22;10562;-33.856;151.182;2022-07-23T02:39:21;16.50;99.90
20803;DHT22;10562;-33.856;151.182;2022-07-23T02:41:53;16.50;99.90
20803;DHT22;10562;-33.856;151.182;2022-07-23T02:44:23;16.60;99.90
20803;DHT22;10562;-33.856;151.182;2022-07-23T02:46:54;16.50;99.90
20803;DHT22;10562;-33.856;151.182;2022-07-23T02:49:25;16.30;99.90
20803;DHT22;10562;-33.856;151.182;2022-07-23T02:51:56;16.40;99.90
20803;DHT22;10562;-33.856;151.182;2022-07-23T02:54:29;16.30;99.90
20803;DHT22;10562;-33.856;151.182;2022-07-23T02:57:00;16.20;99.90
20803;DHT22;10562;-33.856;151.182;2022-07-23T02:59:30;16.00;99.90
20803;DHT22;10562;-33.856;151.182;2022-07-23T03:02:01;16.00;99.90
20803;DHT22;10562;-33.856;151.182;2022-07-23T03:04:32;15.90;99.90
20803;DHT22;10562;-33.856;151.182;2022-07-23T03:07:03;15.90;99.90
20803;DHT22;10562;-33.856;151.182;2022-07-23T03:09:36;15.90;99.90
20803;DHT22;10562;-33.856;151.182;2022-07-23T03:12:07;16.00;99.90
20803;DHT22;10562;-33.856;151.182;2022-07-23T03:14:38;16.10;99.90
20803;DHT22;10562;-33.856;151.182;2022-07-23T03:17:09;16.10;99.90
20803;DHT22;10562;-33.856;151.182;2022-07-23T03:19:40;16.20;99.90
20803;DHT22;10562;-33.856;151.182;2022-07-23T03:22:11;16.30;99.90
20803;DHT22;10562;-33.856;151.182;2022-07-23T03:24:44;16.30;99.90
20803;DHT22;10562;-33.856;151.182;2022-07-23T03:27:27;16.40;99.90
20803;DHT22;10562;-33.856;151.182;2022-07-23T03:29:59;16.30;99.90
20803;DHT22;10562;-33.856;151.182;2022-07-23T03:32:32;16.40;99.90
20803;DHT22;10562;-33.856;151.182;2022-07-23T03:35:06;16.30;99.90
20803;DHT22;10562;-33.856;151.182;2022-07-23T03:37:37;16.10;99.90
20803;DHT22;10562;-33.856;151.182;2022-07-23T03:40:11;16.00;99.90
20803;DHT22;10562;-33.856;151.182;2022-07-23T03:42:42;16.20;99.90
20803;DHT22;10562;-33.856;151.182;2022-07-23T03:45:13;16.40;99.90
20803;DHT22;10562;-33.856;151.182;2022-07-23T03:47:45;16.60;99.90
20803;DHT22;10562;-33.856;151.182;2022-07-23T03:50:18;16.60;99.90
20803;DHT22;10562;-33.856;151.182;2022-07-23T03:52:49;16.80;99.90
20803;DHT22;10562;-33.856;151.182;2022-07-23T03:55:22;16.90;99.90
20803;DHT22;10562;-33.856;151.182;2022-07-23T03:57:53;17.10;99.90
20803;DHT22;10562;-33.856;151.182;2022-07-23T04:00:24;17.20;99.90
20803;DHT22;10562;-33.856;151.182;2022-07-23T04:02:54;17.10;99.90
20803;DHT22;10562;-33.856;151.182;2022-07-23T04:05:25;16.80;99.90
20803;DHT22;10562;-33.856;151.182;2022-07-23T04:07:56;16.70;99.90
20803;DHT22;10562;-33.856;151.182;2022-07-23T04:10:29;16.60;99.90
20803;DHT22;10562;-33.856;151.182;2022-07-23T04:12:59;16.50;99.90
20803;DHT22;10562;-33.856;151.182;2022-07-23T04:15:30;16.30;99.90
20803;DHT22;10562;-33.856;151.182;2022-07-23T04:18:01;16.40;99.90
20803;DHT22;10562;-33.856;151.182;2022-07-23T04:20:32;16.60;99.90
20803;DHT22;10562;-33.856;151.182;2022-07-23T04:23:02;16.60;99.90
20803;DHT22;10562;-33.856;151.182;2022-07-23T04:25:35;16.80;99.90
20803;DHT22;10562;-33.856;151.182;2022-07-23T04:28:06;17.20;99.90
20803;DHT22;10562;-33.856;151.182;2022-07-23T04:30:37;17.20;99.90
20803;DHT22;10562;-33.856;151.182;2022-07-23T04:33:08;17.00;99.90
20803;DHT22;10562;-33.856;151.182;2022-07-23T04:35:39;16.70;99.90
20803;DHT22;10562;-33.856;151.182;2022-07-23T04:38:09;16.50;99.90
20803;DHT22;10562;-33.856;151.182;2022-07-23T04:40:43;16.40;99.90
20803;DHT22;10562;-33.856;151.182;2022-07-23T04:43:14;16.20;99.90
20803;DHT22;10562;-33.856;151.182;2022-07-23T04:45:45;16.40;99.90
20803;DHT22;10562;-33.856;151.182;2022-07-23T04:48:16;16.50;99.90
20803;DHT22;10562;-33.856;151.182;2022-07-23T04:50:46;16.60;99.90
20803;DHT22;10562;-33.856;151.182;2022-07-23T04:53:17;16.40;99.90
20803;DHT22;10562;-33.856;151.182;2022-07-23T04:55:52;16.30;99.90
20803;DHT22;10562;-33.856;151.182;2022-07-23T04:58:23;16.10;99.90
20803;DHT22;10562;-33.856;151.182;2022-07-23T05:00:53;16.00;99.90
20803;DHT22;10562;-33.856;151.182;2022-07-23T05:03:25;16.10;99.90
20803;DHT22;10562;-33.856;151.182;2022-07-23T05:05:56;16.20;99.90
20803;DHT22;10562;-33.856;151.182;2022-07-23T05:08:27;16.10;99.90
20803;DHT22;10562;-33.856;151.182;2022-07-23T05:11:00;16.20;99.90
20803;DHT22;10562;-33.856;151.182;2022-07-23T05:13:31;16.30;99.90
20803;DHT22;10562;-33.856;151.182;2022-07-23T05:16:02;16.40;99.90
20803;DHT22;10562;-33.856;151.182;2022-07-23T05:18:33;16.40;99.90
20803;DHT22;10562;-33.856;151.182;2022-07-23T05:21:04;16.40;99.90
20803;DHT22;10562;-33.856;151.182;2022-07-23T05:23:35;16.50;99.90
20803;DHT22;10562;-33.856;151.182;2022-07-23T05:26:08;16.50;99.90
20803;DHT22;10562;-33.856;151.182;2022-07-23T05:28:38;16.60;99.90
20803;DHT22;10562;-33.856;151.182;2022-07-23T05:31:09;16.50;99.90
20803;DHT22;10562;-33.856;151.182;2022-07-23T05:33:40;16.40;99.90
20803;DHT22;10562;-33.856;151.182;2022-07-23T05:36:11;16.20;99.90
20803;DHT22;10562;-33.856;151.182;2022-07-23T05:38:42;16.00;99.90
20803;DHT22;10562;-33.856;151.182;2022-07-23T05:41:15;16.00;99.90
20803;DHT22;10562;-33.856;151.182;2022-07-23T05:43:46;15.90;99.90
20803;DHT22;10562;-33.856;151.182;2022-07-23T05:46:17;15.90;99.90
20803;DHT22;10562;-33.856;151.182;2022-07-23T05:48:48;15.90;99.90
20803;DHT22;10562;-33.856;151.182;2022-07-23T05:51:23;15.90;99.90
20803;DHT22;10562;-33.856;151.182;2022-07-23T05:53:57;15.70;99.90
20803;DHT22;10562;-33.856;151.182;2022-07-23T05:56:29;15.60;99.90
20803;DHT22;10562;-33.856;151.182;2022-07-23T05:59:00;15.70;99.90
20803;DHT22;10562;-33.856;151.182;2022-07-23T06:01:31;15.70;99.90
20803;DHT22;10562;-33.856;151.182;2022-07-23T06:04:02;15.60;99.90
20803;DHT22;10562;-33.856;151.182;2022-07-23T06:06:36;15.60;99.90
20803;DHT22;10562;-33.856;151.182;2022-07-23T06:09:06;15.50;99.90
20803;DHT22;10562;-33.856;151.182;2022-07-23T06:11:40;15.40;99.90
20803;DHT22;10562;-33.856;151.182;2022-07-23T06:14:11;15.30;99.90
20803;DHT22;10562;-33.856;151.182;2022-07-23T06:16:42;15.30;99.90
20803;DHT22;10562;-33.856;151.182;2022-07-23T06:19:13;15.10;99.90
20803;DHT22;10562;-33.856;151.182;2022-07-23T06:21:44;15.10;99.90
20803;DHT22;10562;-33.856;151.182;2022-07-23T06:24:14;15.00;99.90
20803;DHT22;10562;-33.856;151.182;2022-07-23T06:26:47;14.90;99.90
20803;DHT22;10562;-33.856;151.182;2022-07-23T06:29:18;14.80;99.90
20803;DHT22;10562;-33.856;151.182;2022-07-23T06:31:52;14.80;99.90
20803;DHT22;10562;-33.856;151.182;2022-07-23T06:34:23;14.70;99.90
20803;DHT22;10562;-33.856;151.182;2022-07-23T06:36:53;14.70;99.90
20803;DHT22;10562;-33.856;151.182;2022-07-23T06:39:25;14.70;99.90
20803;DHT22;10562;-33.856;151.182;2022-07-23T06:41:57;14.70;99.90
20803;DHT22;10562;-33.856;151.182;2022-07-23T06:44:29;14.60;99.90
20803;DHT22;10562;-33.856;151.182;2022-07-23T06:46:59;14.60;99.90
20803;DHT22;10562;-33.856;151.182;2022-07-23T06:49:30;14.50;99.90
20803;DHT22;10562;-33.856;151.182;2022-07-23T06:52:01;14.40;99.90
20803;DHT22;10562;-33.856;151.182;2022-07-23T06:54:32;14.40;99.90
20803;DHT22;10562;-33.856;151.182;2022-07-23T06:57:05;14.30;99.90
20803;DHT22;10562;-33.856;151.182;2022-07-23T06:59:35;14.30;99.90
20803;DHT22;10562;-33.856;151.182;2022-07-23T07:02:08;14.20;99.90
20803;DHT22;10562;-33.856;151.182;2022-07-23T07:04:39;14.20;99.90
20803;DHT22;10562;-33.856;151.182;2022-07-23T07:07:10;14.20;99.90
20803;DHT22;10562;-33.856;151.182;2022-07-23T07:09:40;14.10;99.90
20803;DHT22;10562;-33.856;151.182;2022-07-23T07:12:14;14.00;99.90
20803;DHT22;10562;-33.856;151.182;2022-07-23T07:14:44;14.00;99.90
20803;DHT22;10562;-33.856;151.182;2022-07-23T07:17:15;14.00;99.90
20803;DHT22;10562;-33.856;151.182;2022-07-23T07:19:46;13.90;99.90
20803;DHT22;10562;-33.856;151.182;2022-07-23T07:22:17;13.90;99.90
20803;DHT22;10562;-33.856;151.182;2022-07-23T07:24:47;13.90;99.90
20803;DHT22;10562;-33.856;151.182;2022-07-23T07:27:20;13.80;99.90
20803;DHT22;10562;-33.856;151.182;2022-07-23T07:29:51;13.70;99.90
20803;DHT22;10562;-33.856;151.182;2022-07-23T07:32:22;13.70;99.90
20803;DHT22;10562;-33.856;151.182;2022-07-23T07:34:53;13.60;99.90
20803;DHT22;10562;-33.856;151.182;2022-07-23T07:37:27;13.60;99.90
20803;DHT22;10562;-33.856;151.182;2022-07-23T07:39:58;13.50;99.90
20803;DHT22;10562;-33.856;151.182;2022-07-23T07:42:31;13.50;99.90
20803;DHT22;10562;-33.856;151.182;2022-07-23T07:45:02;13.50;99.90
20803;DHT22;10562;-33.856;151.182;2022-07-23T07:47:33;13.40;99.90
20803;DHT22;10562;-33.856;151.182;2022-07-23T07:50:03;13.40;99.90
20803;DHT22;10562;-33.856;151.182;2022-07-23T07:52:36;13.30;99.90
20803;DHT22;10562;-33.856;151.182;2022-07-23T07:55:08;13.30;99.90
20803;DHT22;10562;-33.856;151.182;2022-07-23T07:57:41;13.30;99.90
20803;DHT22;10562;-33.856;151.182;2022-07-23T08:00:12;13.20;99.90
20803;DHT22;10562;-33.856;151.182;2022-07-23T08:02:45;13.30;99.90
20803;DHT22;10562;-33.856;151.182;2022-07-23T08:05:20;13.30;99.90
20803;DHT22;10562;-33.856;151.182;2022-07-23T08:07:54;13.40;99.90
20803;DHT22;10562;-33.856;151.182;2022-07-23T08:10:25;13.40;99.90
20803;DHT22;10562;-33.856;151.182;2022-07-23T08:12:59;13.40;99.90
20803;DHT22;10562;-33.856;151.182;2022-07-23T08:15:31;13.40;99.90
20803;DHT22;10562;-33.856;151.182;2022-07-23T08:18:02;13.40;99.90
20803;DHT22;10562;-33.856;151.182;2022-07-23T08:20:33;13.40;99.90
20803;DHT22;10562;-33.856;151.182;2022-07-23T08:23:05;13.40;99.90
20803;DHT22;10562;-33.856;151.182;2022-07-23T08:25:39;13.30;99.90
20803;DHT22;10562;-33.856;151.182;2022-07-23T08:28:12;13.20;99.90
20803;DHT22;10562;-33.856;151.182;2022-07-23T08:30:44;13.20;99.90
20803;DHT22;10562;-33.856;151.182;2022-07-23T08:33:16;13.20;99.90
20803;DHT22;10562;-33.856;151.182;2022-07-23T08:35:48;13.20;99.90
20803;DHT22;10562;-33.856;151.182;2022-07-23T08:38:21;13.20;99.90
20803;DHT22;10562;-33.856;151.182;2022-07-23T08:40:53;13.10;99.90
20803;DHT22;10562;-33.856;151.182;2022-07-23T08:43:27;13.20;99.90
20803;DHT22;10562;-33.856;151.182;2022-07-23T08:45:59;13.20;99.90
20803;DHT22;10562;-33.856;151.182;2022-07-23T08:48:33;13.20;99.90
20803;DHT22;10562;-33.856;151.182;2022-07-23T08:51:05;13.20;99.90
20803;DHT22;10562;-33.856;151.182;2022-07-23T08:53:36;13.20;99.90
20803;DHT22;10562;-33.856;151.182;2022-07-23T08:56:08;13.20;99.90
20803;DHT22;10562;-33.856;151.182;2022-07-23T08:58:41;13.20;99.90
20803;DHT22;10562;-33.856;151.182;2022-07-23T09:01:12;13.10;99.90
20803;DHT22;10562;-33.856;151.182;2022-07-23T09:03:42;13.00;99.90
20803;DHT22;10562;-33.856;151.182;2022-07-23T09:06:14;13.00;99.90
20803;DHT22;10562;-33.856;151.182;2022-07-23T09:08:45;12.90;99.90
20803;DHT22;10562;-33.856;151.182;2022-07-23T09:11:17;12.90;99.90
20803;DHT22;10562;-33.856;151.182;2022-07-23T09:13:50;12.80;99.90
20803;DHT22;10562;-33.856;151.182;2022-07-23T09:16:25;12.90;99.90
20803;DHT22;10562;-33.856;151.182;2022-07-23T09:18:57;12.90;99.90
20803;DHT22;10562;-33.856;151.182;2022-07-23T09:21:29;12.90;99.90
20803;DHT22;10562;-33.856;151.182;2022-07-23T09:24:00;12.90;99.90
20803;DHT22;10562;-33.856;151.182;2022-07-23T09:26:34;12.90;99.90
20803;DHT22;10562;-33.856;151.182;2022-07-23T09:29:12;12.90;99.90
20803;DHT22;10562;-33.856;151.182;2022-07-23T09:31:48;13.00;99.90
20803;DHT22;10562;-33.856;151.182;2022-07-23T09:34:23;13.00;99.90
20803;DHT22;10562;-33.856;151.182;2022-07-23T09:36:55;13.00;99.90
20803;DHT22;10562;-33.856;151.182;2022-07-23T09:39:27;13.00;99.90
20803;DHT22;10562;-33.856;151.182;2022-07-23T09:42:12;13.10;99.90
20803;DHT22;10562;-33.856;151.182;2022-07-23T09:44:46;13.20;99.90
20803;DHT22;10562;-33.856;151.182;2022-07-23T09:47:17;13.20;99.90
20803;DHT22;10562;-33.856;151.182;2022-07-23T09:50:00;13.20;99.90
20803;DHT22;10562;-33.856;151.182;2022-07-23T09:52:34;13.10;99.90
20803;DHT22;10562;-33.856;151.182;2022-07-23T09:55:09;13.10;99.90
20803;DHT22;10562;-33.856;151.182;2022-07-23T09:57:41;13.00;99.90
20803;DHT22;10562;-33.856;151.182;2022-07-23T10:00:15;12.90;99.90
20803;DHT22;10562;-33.856;151.182;2022-07-23T10:02:47;12.80;99.90
20803;DHT22;10562;-33.856;151.182;2022-07-23T10:05:20;12.80;99.90
20803;DHT22;10562;-33.856;151.182;2022-07-23T10:07:52;12.80;99.90
20803;DHT22;10562;-33.856;151.182;2022-07-23T10:10:23;12.70;99.90
20803;DHT22;10562;-33.856;151.182;2022-07-23T10:12:56;12.70;99.90
20803;DHT22;10562;-33.856;151.182;2022-07-23T10:15:59;12.70;99.90
20803;DHT22;10562;-33.856;151.182;2022-07-23T10:18:31;12.60;99.90
20803;DHT22;10562;-33.856;151.182;2022-07-23T10:21:07;12.60;99.90
20803;DHT22;10562;-33.856;151.182;2022-07-23T10:23:42;12.50;99.90
20803;DHT22;10562;-33.856;151.182;2022-07-23T10:26:19;12.40;99.90
20803;DHT22;10562;-33.856;151.182;2022-07-23T10:29:01;12.30;99.90
20803;DHT22;10562;-33.856;151.182;2022-07-23T10:31:40;12.30;99.90
20803;DHT22;10562;-33.856;151.182;2022-07-23T10:34:19;12.20;99.90
20803;DHT22;10562;-33.856;151.182;2022-07-23T10:36:56;12.10;99.90
20803;DHT22;10562;-33.856;151.182;2022-07-23T10:39:30;12.10;99.90
20803;DHT22;10562;-33.856;151.182;2022-07-23T10:42:12;12.00;99.90
20803;DHT22;10562;-33.856;151.182;2022-07-23T10:44:44;12.00;99.90
20803;DHT22;10562;-33.856;151.182;2022-07-23T10:47:26;11.90;99.90
20803;DHT22;10562;-33.856;151.182;2022-07-23T10:50:23;11.90;99.90
20803;DHT22;10562;-33.856;151.182;2022-07-23T10:53:15;11.90;99.90
20803;DHT22;10562;-33.856;151.182;2022-07-23T10:55:51;11.90;99.90
20803;DHT22;10562;-33.856;151.182;2022-07-23T10:58:46;11.90;99.90
20803;DHT22;10562;-33.856;151.182;2022-07-23T11:01:35;12.00;99.90
20803;DHT22;10562;-33.856;151.182;2022-07-23T11:04:08;12.30;99.90
20803;DHT22;10562;-33.856;151.182;2022-07-23T11:07:13;12.40;99.90
20803;DHT22;10562;-33.856;151.182;2022-07-23T11:09:44;12.40;99.90
20803;DHT22;10562;-33.856;151.182;2022-07-23T11:12:35;12.50;99.90
20803;DHT22;10562;-33.856;151.182;2022-07-23T11:15:08;12.50;99.90
20803;DHT22;10562;-33.856;151.182;2022-07-23T11:17:58;12.50;99.90
20803;DHT22;10562;-33.856;151.182;2022-07-23T11:20:33;12.50;99.90
20803;DHT22;10562;-33.856;151.182;2022-07-23T11:23:04;12.50;99.90
20803;DHT22;10562;-33.856;151.182;2022-07-23T11:25:38;12.60;99.90
20803;DHT22;10562;-33.856;151.182;2022-07-23T11:28:15;12.60;99.90
20803;DHT22;10562;-33.856;151.182;2022-07-23T11:30:49;12.60;99.90
20803;DHT22;10562;-33.856;151.182;2022-07-23T11:33:22;12.60;99.90
20803;DHT22;10562;-33.856;151.182;2022-07-23T11:36:04;12.60;99.90
20803;DHT22;10562;-33.856;151.182;2022-07-23T11:38:37;12.60;99.90
20803;DHT22;10562;-33.856;151.182;2022-07-23T11:41:09;12.60;99.90
20803;DHT22;10562;-33.856;151.182;2022-07-23T11:43:40;12.70;99.90
20803;DHT22;10562;-33.856;151.182;2022-07-23T11:46:11;12.70;99.90
20803;DHT22;10562;-33.856;151.182;2022-07-23T11:48:42;12.80;99.90
20803;DHT22;10562;-33.856;151.182;2022-07-23T11:51:25;12.80;99.90
20803;DHT22;10562;-33.856;151.182;2022-07-23T11:54:06;12.80;99.90
20803;DHT22;10562;-33.856;151.182;2022-07-23T11:56:37;12.80;99.90
20803;DHT22;10562;-33.856;151.182;2022-07-23T11:59:08;12.80;99.90
20803;DHT22;10562;-33.856;151.182;2022-07-23T12:01:39;12.80;99.90
20803;DHT22;10562;-33.856;151.182;2022-07-23T12:04:36;12.80;99.90
20803;DHT22;10562;-33.856;151.182;2022-07-23T12:07:24;12.80;99.90
20803;DHT22;10562;-33.856;151.182;2022-07-23T12:09:56;12.80;99.90
20803;DHT22;10562;-33.856;151.182;2022-07-23T12:12:37;12.80;99.90
20803;DHT22;10562;-33.856;151.182;2022-07-23T12:15:10;12.80;99.90
20803;DHT22;10562;-33.856;151.182;2022-07-23T12:17:42;12.70;99.90
20803;DHT22;10562;-33.856;151.182;2022-07-23T12:20:15;12.70;99.90
20803;DHT22;10562;-33.856;151.182;2022-07-23T12:22:49;12.60;99.90
20803;DHT22;10562;-33.856;151.182;2022-07-23T12:25:20;12.50;99.90
20803;DHT22;10562;-33.856;151.182;2022-07-23T12:28:01;12.50;99.90
20803;DHT22;10562;-33.856;151.182;2022-07-23T12:30:33;12.50;99.90
20803;DHT22;10562;-33.856;151.182;2022-07-23T12:33:04;12.40;99.90
20803;DHT22;10562;-33.856;151.182;2022-07-23T12:35:38;12.30;99.90
20803;DHT22;10562;-33.856;151.182;2022-07-23T12:38:13;12.30;99.90
20803;DHT22;10562;-33.856;151.182;2022-07-23T12:40:45;12.20;99.90
20803;DHT22;10562;-33.856;151.182;2022-07-23T12:43:23;12.20;99.90
20803;DHT22;10562;-33.856;151.182;2022-07-23T12:45:55;12.20;99.90
20803;DHT22;10562;-33.856;151.182;2022-07-23T12:48:27;12.20;99.90
20803;DHT22;10562;-33.856;151.182;2022-07-23T12:51:00;12.20;99.90
20803;DHT22;10562;-33.856;151.182;2022-07-23T12:53:37;12.10;99.90
20803;DHT22;10562;-33.856;151.182;2022-07-23T12:56:09;12.10;99.90
20803;DHT22;10562;-33.856;151.182;2022-07-23T12:58:46;12.10;99.90
20803;DHT22;10562;-33.856;151.182;2022-07-23T13:01:25;12.10;99.90
20803;DHT22;10562;-33.856;151.182;2022-07-23T13:03:59;12.10;99.90
20803;DHT22;10562;-33.856;151.182;2022-07-23T13:06:30;12.10;99.90
20803;DHT22;10562;-33.856;151.182;2022-07-23T13:09:06;12.10;99.90
20803;DHT22;10562;-33.856;151.182;2022-07-23T13:11:37;12.10;99.90
20803;DHT22;10562;-33.856;151.182;2022-07-23T13:14:08;12.10;99.90
20803;DHT22;10562;-33.856;151.182;2022-07-23T13:16:39;12.00;99.90
20803;DHT22;10562;-33.856;151.182;2022-07-23T13:19:10;12.00;99.90
20803;DHT22;10562;-33.856;151.182;2022-07-23T13:21:41;11.90;99.90
20803;DHT22;10562;-33.856;151.182;2022-07-23T13:24:14;11.90;99.90
20803;DHT22;10562;-33.856;151.182;2022-07-23T13:26:45;11.90;99.90
20803;DHT22;10562;-33.856;151.182;2022-07-23T13:29:18;11.90;99.90
20803;DHT22;10562;-33.856;151.182;2022-07-23T13:31:49;11.80;99.90
20803;DHT22;10562;-33.856;151.182;2022-07-23T13:34:19;11.80;99.90
20803;DHT22;10562;-33.856;151.182;2022-07-23T13:36:50;11.70;99.90
20803;DHT22;10562;-33.856;151.182;2022-07-23T13:39:23;11.70;99.90
20803;DHT22;10562;-33.856;151.182;2022-07-23T13:41:54;11.80;99.90
20803;DHT22;10562;-33.856;151.182;2022-07-23T13:44:24;11.80;99.90
20803;DHT22;10562;-33.856;151.182;2022-07-23T13:46:55;11.90;99.90
20803;DHT22;10562;-33.856;151.182;2022-07-23T13:49:26;11.90;99.90
20803;DHT22;10562;-33.856;151.182;2022-07-23T13:51:57;11.80;99.90
20803;DHT22;10562;-33.856;151.182;2022-07-23T13:54:31;11.90;99.90
20803;DHT22;10562;-33.856;151.182;2022-07-23T13:57:01;11.80;99.90
20803;DHT22;10562;-33.856;151.182;2022-07-23T13:59:32;11.80;99.90
20803;DHT22;10562;-33.856;151.182;2022-07-23T14:02:03;11.80;99.90
20803;DHT22;10562;-33.856;151.182;2022-07-23T14:04:34;11.80;99.90
20803;DHT22;10562;-33.856;151.182;2022-07-23T14:07:05;11.70;99.90
20803;DHT22;10562;-33.856;151.182;2022-07-23T14:09:38;11.70;99.90
20803;DHT22;10562;-33.856;151.182;2022-07-23T14:12:09;11.70;99.90
20803;DHT22;10562;-33.856;151.182;2022-07-23T14:14:40;11.60;99.90
20803;DHT22;10562;-33.856;151.182;2022-07-23T14:17:11;11.50;99.90
20803;DHT22;10562;-33.856;151.182;2022-07-23T14:19:42;11.40;99.90
20803;DHT22;10562;-33.856;151.182;2022-07-23T14:22:13;11.40;99.90
20803;DHT22;10562;-33.856;151.182;2022-07-23T14:24:46;11.30;99.90
20803;DHT22;10562;-33.856;151.182;2022-07-23T14:27:17;11.20;99.90
20803;DHT22;10562;-33.856;151.182;2022-07-23T14:29:48;11.20;99.90
20803;DHT22;10562;-33.856;151.182;2022-07-23T14:32:19;11.20;99.90
20803;DHT22;10562;-33.856;151.182;2022-07-23T14:34:50;11.10;99.90
20803;DHT22;10562;-33.856;151.182;2022-07-23T14:37:21;11.10;99.90
20803;DHT22;10562;-33.856;151.182;2022-07-23T14:39:54;11.10;99.90
20803;DHT22;10562;-33.856;151.182;2022-07-23T14:42:25;11.10;99.90
20803;DHT22;10562;-33.856;151.182;2022-07-23T14:44:56;11.20;99.90
20803;DHT22;10562;-33.856;151.182;2022-07-23T14:47:30;11.10;99.90
20803;DHT22;10562;-33.856;151.182;2022-07-23T14:50:04;11.30;99.90
20803;DHT22;10562;-33.856;151.182;2022-07-23T14:52:34;11.40;99.90
20803;DHT22;10562;-33.856;151.182;2022-07-23T14:55:08;11.40;99.90
20803;DHT22;10562;-33.856;151.182;2022-07-23T14:57:39;11.40;99.90
20803;DHT22;10562;-33.856;151.182;2022-07-23T15:00:10;11.30;99.90
20803;DHT22;10562;-33.856;151.182;2022-07-23T15:02:41;11.30;99.90
20803;DHT22;10562;-33.856;151.182;2022-07-23T15:05:12;11.10;99.90
20803;DHT22;10562;-33.856;151.182;2022-07-23T15:07:43;11.10;99.90
20803;DHT22;10562;-33.856;151.182;2022-07-23T15:10:15;11.10;99.90
20803;DHT22;10562;-33.856;151.182;2022-07-23T15:12:46;11.00;99.90
20803;DHT22;10562;-33.856;151.182;2022-07-23T15:15:17;10.90;99.90
20803;DHT22;10562;-33.856;151.182;2022-07-23T15:17:48;10.90;99.90
20803;DHT22;10562;-33.856;151.182;2022-07-23T15:20:18;10.90;99.90
20803;DHT22;10562;-33.856;151.182;2022-07-23T15:22:49;10.90;99.90